Strona główna
METAR-TAF:

METAR-TAF

Lotnisko :

Emmen, Szwajcaria

Szerokość geograficzna: 47-05-32N, Długość geograficzna: 8-18-16E, wysokość: 426 m

Aktualna obserwacja pogody

Raport powstał 18 minut temu, godzina 11:50 UTC
Wiatr 3 kt od północno-północny wschód
Temperatura 8°C
Wilgotność 81%
Ciśnienie 1010 hPa
Widzialność 10 km lub więcej

METAR: LSME 161150Z AUTO 03003KT 9999NDV NCD 08/05 Q1010 RMK

czas: 13:08 (12:08 UTC)


TAF: brakujący

Obserwacja i prognoza pogody dla ponad 4000 lotnisk (raport METAR i TAF).

Dostępne stacje oznaczono żółtymi i czerwonymi punktami na mapie.

Najedź kursorem aby zobaczyć nazwę stacji.

Kliknij aby zobaczyć obserwacje i prognozy pogody.

Aby zmienić mapę: kliknij na zielony przycisk z czarnym krzyżykiem, aby powiększyć; na zielony przycisk z myślnikiem, aby pomniejszyć; na zielone strzałki, aby przejść do map sąsiednich.


METAR-TAF: